DLH35X EDDM-EBBR
Flight info
| Callsign | DLH35X |
|---|---|
| Flight time | N/A |
| Altitude | 32000 |
| Route | GIVMI1N/26R GIVMI Y101 INBED DCT REKDI DCT OSBIT DCT TEKTU DCT TESGA DCT UMUPU T880 BATTY |
| Aircraft | A321/M-SDE3FGHIRWY/LB1 |
Departure
| Time | N/A |
|---|---|
| Airport | Munich Airport (EDDM) |
Arrival
| Time | 2026-05-07 18:21 |
|---|---|
| Airport | Brussels Airport (EBBR) |
| Time | Latitude | Longitude | Altitude | Speed | Heading |
|---|---|---|---|---|---|
| 2026-05-07 17:43 | 50.04246 | 9.82664 | 32060 ft | 415 kts | 314° |
| 2026-05-07 17:43 | 50.06258 | 9.79452 | 32057 ft | 415 kts | 311° |
| 2026-05-07 17:43 | 50.09624 | 9.72180 | 32056 ft | 414 kts | 303° |
| 2026-05-07 17:44 | 50.12805 | 9.64687 | 32048 ft | 415 kts | 303° |
| 2026-05-07 17:44 | 50.15990 | 9.57189 | 32041 ft | 416 kts | 303° |
| 2026-05-07 17:45 | 50.19180 | 9.49651 | 32039 ft | 417 kts | 303° |
| 2026-05-07 17:45 | 50.22351 | 9.42132 | 32042 ft | 418 kts | 303° |
| 2026-05-07 17:46 | 50.25539 | 9.34547 | 32044 ft | 418 kts | 303° |
| 2026-05-07 17:46 | 50.28728 | 9.26937 | 32053 ft | 418 kts | 303° |
| 2026-05-07 17:47 | 50.31915 | 9.19319 | 32050 ft | 419 kts | 303° |
| 2026-05-07 17:47 | 50.34718 | 9.11349 | 32055 ft | 419 kts | 290° |
| 2026-05-07 17:48 | 50.36469 | 9.02653 | 32058 ft | 419 kts | 287° |
| 2026-05-07 17:48 | 50.38189 | 8.93998 | 32060 ft | 419 kts | 287° |
| 2026-05-07 17:49 | 50.39921 | 8.85272 | 32059 ft | 419 kts | 287° |
| 2026-05-07 17:49 | 50.41643 | 8.76538 | 32062 ft | 419 kts | 287° |
| 2026-05-07 17:50 | 50.43346 | 8.67791 | 32062 ft | 419 kts | 287° |
| 2026-05-07 17:50 | 50.44797 | 8.58940 | 32067 ft | 419 kts | 279° |
| 2026-05-07 17:51 | 50.45699 | 8.49902 | 32066 ft | 420 kts | 279° |
| 2026-05-07 17:51 | 50.46590 | 8.40910 | 32068 ft | 420 kts | 279° |
| 2026-05-07 17:52 | 50.47483 | 8.31859 | 32063 ft | 419 kts | 279° |
| 2026-05-07 17:52 | 50.48374 | 8.22818 | 32070 ft | 419 kts | 279° |
| 2026-05-07 17:53 | 50.49260 | 8.13780 | 32071 ft | 419 kts | 279° |
| 2026-05-07 17:53 | 50.50130 | 8.04737 | 32071 ft | 419 kts | 279° |
| 2026-05-07 17:54 | 50.50982 | 7.95752 | 32067 ft | 418 kts | 279° |
| 2026-05-07 17:54 | 50.51835 | 7.86709 | 31942 ft | 420 kts | 278° |
| 2026-05-07 17:55 | 50.52263 | 7.82168 | 31401 ft | 419 kts | 278° |
| 2026-05-07 17:55 | 50.52687 | 7.77669 | 30920 ft | 414 kts | 278° |
| 2026-05-07 17:55 | 50.53104 | 7.73217 | 30429 ft | 410 kts | 278° |
| 2026-05-07 17:55 | 50.53516 | 7.68808 | 29911 ft | 406 kts | 278° |
| 2026-05-07 17:56 | 50.53919 | 7.64449 | 29402 ft | 400 kts | 278° |
| 2026-05-07 17:56 | 50.54315 | 7.60152 | 28923 ft | 395 kts | 278° |
| 2026-05-07 17:56 | 50.54706 | 7.55900 | 28454 ft | 394 kts | 278° |
| 2026-05-07 17:56 | 50.55100 | 7.51566 | 27969 ft | 403 kts | 278° |
| 2026-05-07 17:57 | 50.55489 | 7.47256 | 27485 ft | 403 kts | 278° |
| 2026-05-07 17:57 | 50.55751 | 7.44318 | 27160 ft | 402 kts | 276° |
| 2026-05-07 17:57 | 50.55898 | 7.38541 | 26656 ft | 398 kts | 270° |
| 2026-05-07 17:57 | 50.55926 | 7.34196 | 26317 ft | 396 kts | 270° |
| 2026-05-07 17:58 | 50.55959 | 7.29875 | 25955 ft | 394 kts | 270° |
| 2026-05-07 17:58 | 50.55994 | 7.25578 | 25605 ft | 392 kts | 270° |
| 2026-05-07 17:58 | 50.56029 | 7.21304 | 25258 ft | 390 kts | 270° |
| 2026-05-07 17:58 | 50.56059 | 7.17051 | 24912 ft | 388 kts | 270° |
| 2026-05-07 17:59 | 50.56037 | 7.12825 | 24567 ft | 386 kts | 268° |
| 2026-05-07 17:59 | 50.55958 | 7.08623 | 24225 ft | 383 kts | 267° |
| 2026-05-07 17:59 | 50.55848 | 7.04447 | 23886 ft | 381 kts | 267° |
| 2026-05-07 17:59 | 50.55729 | 7.00343 | 23537 ft | 379 kts | 266° |
| 2026-05-07 18:00 | 50.55612 | 6.96212 | 23186 ft | 378 kts | 267° |
| 2026-05-07 18:00 | 50.55503 | 6.92089 | 22844 ft | 377 kts | 267° |
| 2026-05-07 18:00 | 50.55402 | 6.87985 | 22513 ft | 375 kts | 267° |
| 2026-05-07 18:00 | 50.55306 | 6.83899 | 22180 ft | 373 kts | 267° |
| 2026-05-07 18:01 | 50.55210 | 6.79837 | 22025 ft | 371 kts | 267° |
| 2026-05-07 18:01 | 50.55112 | 6.75779 | 22051 ft | 372 kts | 267° |
| 2026-05-07 18:01 | 50.55014 | 6.71714 | 22051 ft | 372 kts | 268° |
| 2026-05-07 18:01 | 50.55147 | 6.67659 | 22058 ft | 373 kts | 279° |
| 2026-05-07 18:02 | 50.56700 | 6.59875 | 22051 ft | 374 kts | 288° |
| 2026-05-07 18:02 | 50.57536 | 6.56004 | 22051 ft | 374 kts | 288° |
| 2026-05-07 18:02 | 50.58368 | 6.52188 | 22053 ft | 374 kts | 288° |
| 2026-05-07 18:03 | 50.59211 | 6.48326 | 21843 ft | 374 kts | 288° |
| 2026-05-07 18:03 | 50.60055 | 6.44453 | 21253 ft | 372 kts | 288° |
| 2026-05-07 18:03 | 50.60885 | 6.40632 | 20834 ft | 366 kts | 288° |
| 2026-05-07 18:03 | 50.61701 | 6.36873 | 20414 ft | 360 kts | 288° |
| 2026-05-07 18:04 | 50.62514 | 6.33152 | 20082 ft | 361 kts | 288° |
| 2026-05-07 18:04 | 50.63326 | 6.29404 | 19835 ft | 362 kts | 288° |
| 2026-05-07 18:04 | 50.64135 | 6.25656 | 19588 ft | 361 kts | 288° |
| 2026-05-07 18:04 | 50.64668 | 6.23181 | 19422 ft | 360 kts | 288° |
| 2026-05-07 18:05 | 50.65726 | 6.18242 | 19093 ft | 358 kts | 288° |
| 2026-05-07 18:05 | 50.66522 | 6.14521 | 18711 ft | 357 kts | 288° |
| 2026-05-07 18:05 | 50.67313 | 6.10830 | 18221 ft | 354 kts | 288° |
| 2026-05-07 18:05 | 50.68095 | 6.07167 | 17681 ft | 351 kts | 288° |
| 2026-05-07 18:06 | 50.68872 | 6.03527 | 17146 ft | 349 kts | 288° |
| 2026-05-07 18:06 | 50.69382 | 6.01135 | 16908 ft | 345 kts | 288° |
| 2026-05-07 18:06 | 50.70146 | 5.97537 | 16648 ft | 346 kts | 288° |
| 2026-05-07 18:06 | 50.70911 | 5.93942 | 16390 ft | 346 kts | 287° |
| 2026-05-07 18:07 | 50.71673 | 5.90350 | 16128 ft | 345 kts | 288° |
| 2026-05-07 18:07 | 50.72432 | 5.86772 | 15880 ft | 343 kts | 287° |
| 2026-05-07 18:07 | 50.73188 | 5.83204 | 15631 ft | 342 kts | 287° |
| 2026-05-07 18:07 | 50.74189 | 5.78495 | 15306 ft | 341 kts | 287° |
| 2026-05-07 18:08 | 50.74695 | 5.76101 | 15137 ft | 339 kts | 287° |
| 2026-05-07 18:08 | 50.75425 | 5.72622 | 14893 ft | 330 kts | 287° |
| 2026-05-07 18:08 | 50.76133 | 5.69248 | 14649 ft | 326 kts | 287° |
| 2026-05-07 18:08 | 50.76841 | 5.65861 | 14147 ft | 323 kts | 287° |
| 2026-05-07 18:09 | 50.77553 | 5.62529 | 13412 ft | 318 kts | 289° |
| 2026-05-07 18:09 | 50.78310 | 5.59330 | 13327 ft | 303 kts | 290° |
| 2026-05-07 18:09 | 50.79067 | 5.56298 | 13177 ft | 293 kts | 290° |
| 2026-05-07 18:09 | 50.79832 | 5.53293 | 12848 ft | 295 kts | 291° |
| 2026-05-07 18:10 | 50.80598 | 5.50290 | 12480 ft | 294 kts | 290° |
| 2026-05-07 18:10 | 50.81353 | 5.47297 | 12116 ft | 292 kts | 290° |
| 2026-05-07 18:10 | 50.82099 | 5.44317 | 11755 ft | 291 kts | 290° |
| 2026-05-07 18:10 | 50.82838 | 5.41347 | 11398 ft | 290 kts | 290° |
| 2026-05-07 18:11 | 50.83560 | 5.38428 | 11034 ft | 288 kts | 290° |
| 2026-05-07 18:11 | 50.84286 | 5.35477 | 10678 ft | 287 kts | 290° |
| 2026-05-07 18:11 | 50.85008 | 5.32552 | 10338 ft | 285 kts | 290° |
| 2026-05-07 18:11 | 50.85729 | 5.29638 | 10251 ft | 285 kts | 290° |
| 2026-05-07 18:12 | 50.86450 | 5.26717 | 10130 ft | 285 kts | 290° |
| 2026-05-07 18:12 | 50.87171 | 5.23783 | 9887 ft | 287 kts | 290° |
| 2026-05-07 18:12 | 50.87899 | 5.20814 | 9429 ft | 288 kts | 290° |
| 2026-05-07 18:12 | 50.88619 | 5.17865 | 8921 ft | 289 kts | 290° |
| 2026-05-07 18:13 | 50.89339 | 5.14921 | 8609 ft | 284 kts | 290° |
| 2026-05-07 18:13 | 50.90049 | 5.12013 | 8164 ft | 282 kts | 290° |
| 2026-05-07 18:13 | 50.90753 | 5.09131 | 7635 ft | 280 kts | 291° |
| 2026-05-07 18:13 | 50.91451 | 5.06268 | 7057 ft | 277 kts | 290° |
| 2026-05-07 18:14 | 50.92129 | 5.03472 | 6460 ft | 274 kts | 291° |
| 2026-05-07 18:14 | 50.92807 | 5.00674 | 5952 ft | 271 kts | 291° |
| 2026-05-07 18:14 | 50.93486 | 4.97868 | 5483 ft | 274 kts | 291° |
| 2026-05-07 18:14 | 50.94172 | 4.95036 | 5054 ft | 275 kts | 291° |
| 2026-05-07 18:15 | 50.94854 | 4.92223 | 4647 ft | 274 kts | 291° |
| 2026-05-07 18:15 | 50.95536 | 4.89405 | 4335 ft | 271 kts | 291° |
| 2026-05-07 18:15 | 50.96196 | 4.86662 | 4166 ft | 261 kts | 291° |
| 2026-05-07 18:15 | 50.96828 | 4.84028 | 4043 ft | 249 kts | 291° |
| 2026-05-07 18:16 | 50.97423 | 4.81553 | 3929 ft | 236 kts | 291° |
| 2026-05-07 18:16 | 50.97997 | 4.79160 | 3833 ft | 234 kts | 291° |
| 2026-05-07 18:16 | 50.98395 | 4.76683 | 3713 ft | 229 kts | 272° |
| 2026-05-07 18:16 | 50.98170 | 4.74269 | 3494 ft | 219 kts | 249° |
| 2026-05-07 18:17 | 50.97559 | 4.72116 | 3179 ft | 209 kts | 245° |
| 2026-05-07 18:17 | 50.96962 | 4.70062 | 2888 ft | 201 kts | 245° |
| 2026-05-07 18:17 | 50.96389 | 4.68084 | 2604 ft | 194 kts | 245° |
| 2026-05-07 18:17 | 50.95835 | 4.66166 | 2371 ft | 188 kts | 245° |
| 2026-05-07 18:18 | 50.95301 | 4.64320 | 2130 ft | 177 kts | 245° |
| 2026-05-07 18:18 | 50.94810 | 4.62628 | 1932 ft | 164 kts | 245° |
| 2026-05-07 18:18 | 50.94345 | 4.61023 | 1689 ft | 157 kts | 245° |
| 2026-05-07 18:18 | 50.93893 | 4.59461 | 1472 ft | 155 kts | 245° |
| 2026-05-07 18:19 | 50.93453 | 4.57935 | 1278 ft | 154 kts | 245° |
| 2026-05-07 18:19 | 50.93010 | 4.56400 | 1061 ft | 153 kts | 245° |
| 2026-05-07 18:19 | 50.92567 | 4.54866 | 846 ft | 153 kts | 246° |
| 2026-05-07 18:19 | 50.92127 | 4.53331 | 660 ft | 153 kts | 246° |
| 2026-05-07 18:20 | 50.91688 | 4.51795 | 455 ft | 153 kts | 246° |
| 2026-05-07 18:20 | 50.91246 | 4.50259 | 238 ft | 153 kts | 246° |
| 2026-05-07 18:20 | 50.90813 | 4.48758 | 121 ft | 140 kts | 245° |
| 2026-05-07 18:20 | 50.90475 | 4.47586 | 122 ft | 91 kts | 245° |
| 2026-05-07 18:21 | 50.90291 | 4.46972 | 124 ft | 32 kts | 237° |
| 2026-05-07 18:21 | 50.90151 | 4.46741 | 129 ft | 23 kts | 217° |
| 2026-05-07 18:21 | 50.90064 | 4.46702 | 127 ft | 12 kts | 141° |
| 2026-05-07 18:21 | 50.90070 | 4.46813 | 129 ft | 10 kts | 64° |
| 2026-05-07 18:22 | 50.90095 | 4.46897 | 126 ft | 9 kts | 65° |
| 2026-05-07 18:22 | 50.90115 | 4.46965 | 125 ft | 11 kts | 65° |
| 2026-05-07 18:22 | 50.90158 | 4.47143 | 126 ft | 15 kts | 91° |
| 2026-05-07 18:22 | 50.90132 | 4.47307 | 124 ft | 16 kts | 74° |
| 2026-05-07 18:23 | 50.90186 | 4.47482 | 120 ft | 19 kts | 66° |
| 2026-05-07 18:23 | 50.90243 | 4.47685 | 116 ft | 21 kts | 65° |
| 2026-05-07 18:23 | 50.90291 | 4.47851 | 118 ft | 15 kts | 65° |
| 2026-05-07 18:23 | 50.90327 | 4.47972 | 119 ft | 11 kts | 65° |
| 2026-05-07 18:24 | 50.90333 | 4.48038 | 118 ft | 5 kts | 123° |
| 2026-05-07 18:24 | 50.90299 | 4.48066 | 121 ft | 6 kts | 155° |
| 2026-05-07 18:24 | 50.90282 | 4.48078 | 120 ft | 1 kts | 155° |
| 2026-05-07 18:24 | 50.90273 | 4.48084 | 120 ft | 1 kts | 155° |
| 2026-05-07 18:25 | 50.90265 | 4.48089 | 118 ft | 1 kts | 155° |
| 2026-05-07 18:25 | 50.90263 | 4.48091 | 117 ft | 0 kts | 155° |